sensor_id;sensor_type;location;lat;lon;timestamp;P1;durP1;ratioP1;P2;durP2;ratioP2
70545;SDS011;58098;51.680;5.134;2023-07-31T00:00:05;40.43;;;11.37;;
70545;SDS011;58098;51.680;5.134;2023-07-31T00:02:31;32.90;;;10.65;;
70545;SDS011;58098;51.680;5.134;2023-07-31T00:04:56;40.63;;;10.87;;
70545;SDS011;58098;51.680;5.134;2023-07-31T00:07:22;39.33;;;10.60;;
70545;SDS011;58098;51.680;5.134;2023-07-31T00:09:47;38.33;;;11.05;;
70545;SDS011;58098;51.680;5.134;2023-07-31T00:12:12;44.47;;;10.40;;
70545;SDS011;58098;51.680;5.134;2023-07-31T00:14:38;39.67;;;10.13;;
70545;SDS011;58098;51.680;5.134;2023-07-31T00:17:03;34.33;;;10.43;;
70545;SDS011;58098;51.680;5.134;2023-07-31T00:19:29;47.00;;;10.40;;
70545;SDS011;58098;51.680;5.134;2023-07-31T00:21:54;30.97;;;9.30;;
70545;SDS011;58098;51.680;5.134;2023-07-31T00:24:19;43.57;;;11.13;;
70545;SDS011;58098;51.680;5.134;2023-07-31T00:26:45;33.70;;;9.77;;
70545;SDS011;58098;51.680;5.134;2023-07-31T00:29:10;37.53;;;10.07;;
70545;SDS011;58098;51.680;5.134;2023-07-31T00:31:36;39.40;;;9.60;;
70545;SDS011;58098;51.680;5.134;2023-07-31T00:34:01;33.80;;;8.37;;
70545;SDS011;58098;51.680;5.134;2023-07-31T00:36:26;36.23;;;9.43;;
70545;SDS011;58098;51.680;5.134;2023-07-31T00:38:51;35.60;;;8.27;;
70545;SDS011;58098;51.680;5.134;2023-07-31T00:41:17;31.73;;;9.53;;
70545;SDS011;58098;51.680;5.134;2023-07-31T00:43:42;32.63;;;8.80;;
70545;SDS011;58098;51.680;5.134;2023-07-31T00:46:08;36.30;;;9.97;;
70545;SDS011;58098;51.680;5.134;2023-07-31T00:48:33;34.73;;;9.33;;
70545;SDS011;58098;51.680;5.134;2023-07-31T00:51:00;42.15;;;10.30;;
70545;SDS011;58098;51.680;5.134;2023-07-31T00:53:26;33.07;;;9.00;;
70545;SDS011;58098;51.680;5.134;2023-07-31T00:55:52;34.03;;;8.85;;
70545;SDS011;58098;51.680;5.134;2023-07-31T00:58:18;34.78;;;9.95;;
70545;SDS011;58098;51.680;5.134;2023-07-31T01:00:43;34.30;;;8.97;;
70545;SDS011;58098;51.680;5.134;2023-07-31T01:03:09;24.97;;;8.23;;
70545;SDS011;58098;51.680;5.134;2023-07-31T01:11:19;29.30;;;8.40;;
70545;SDS011;58098;51.680;5.134;2023-07-31T01:13:52;28.90;;;8.32;;
70545;SDS011;58098;51.680;5.134;2023-07-31T01:16:18;30.10;;;8.50;;
70545;SDS011;58098;51.680;5.134;2023-07-31T01:18:44;31.57;;;8.67;;
70545;SDS011;58098;51.680;5.134;2023-07-31T01:21:21;32.87;;;8.47;;
70545;SDS011;58098;51.680;5.134;2023-07-31T01:26:47;28.60;;;8.27;;
70545;SDS011;58098;51.680;5.134;2023-07-31T01:31:55;25.10;;;7.83;;
70545;SDS011;58098;51.680;5.134;2023-07-31T01:34:23;28.92;;;8.60;;
70545;SDS011;58098;51.680;5.134;2023-07-31T01:36:49;26.00;;;7.97;;
70545;SDS011;58098;51.680;5.134;2023-07-31T01:39:14;31.43;;;8.60;;
70545;SDS011;58098;51.680;5.134;2023-07-31T01:41:40;30.58;;;8.00;;
70545;SDS011;58098;51.680;5.134;2023-07-31T01:44:06;31.23;;;8.37;;
70545;SDS011;58098;51.680;5.134;2023-07-31T01:46:31;32.83;;;8.75;;
70545;SDS011;58098;51.680;5.134;2023-07-31T01:48:57;25.63;;;8.17;;
70545;SDS011;58098;51.680;5.134;2023-07-31T01:51:22;33.47;;;8.50;;
70545;SDS011;58098;51.680;5.134;2023-07-31T01:53:47;30.00;;;8.57;;
70545;SDS011;58098;51.680;5.134;2023-07-31T01:56:13;34.43;;;9.10;;
70545;SDS011;58098;51.680;5.134;2023-07-31T01:58:38;29.70;;;8.48;;
70545;SDS011;58098;51.680;5.134;2023-07-31T02:01:04;30.63;;;8.10;;
70545;SDS011;58098;51.680;5.134;2023-07-31T02:03:29;27.87;;;9.00;;
70545;SDS011;58098;51.680;5.134;2023-07-31T02:05:54;31.13;;;8.60;;
70545;SDS011;58098;51.680;5.134;2023-07-31T02:08:20;30.85;;;8.32;;
70545;SDS011;58098;51.680;5.134;2023-07-31T02:10:45;29.60;;;8.20;;
70545;SDS011;58098;51.680;5.134;2023-07-31T02:13:11;28.17;;;8.47;;
70545;SDS011;58098;51.680;5.134;2023-07-31T02:15:36;23.97;;;8.00;;
70545;SDS011;58098;51.680;5.134;2023-07-31T02:18:02;28.65;;;8.23;;
70545;SDS011;58098;51.680;5.134;2023-07-31T02:20:27;26.13;;;7.93;;
70545;SDS011;58098;51.680;5.134;2023-07-31T02:22:52;33.37;;;8.13;;
70545;SDS011;58098;51.680;5.134;2023-07-31T02:25:18;26.00;;;7.40;;
70545;SDS011;58098;51.680;5.134;2023-07-31T02:27:43;27.90;;;8.00;;
70545;SDS011;58098;51.680;5.134;2023-07-31T02:30:09;28.73;;;8.00;;
70545;SDS011;58098;51.680;5.134;2023-07-31T02:32:34;28.90;;;8.23;;
70545;SDS011;58098;51.680;5.134;2023-07-31T02:35:00;23.73;;;7.40;;
70545;SDS011;58098;51.680;5.134;2023-07-31T02:37:25;26.42;;;8.13;;
70545;SDS011;58098;51.680;5.134;2023-07-31T02:39:51;27.97;;;7.43;;
70545;SDS011;58098;51.680;5.134;2023-07-31T02:42:16;21.40;;;7.60;;
70545;SDS011;58098;51.680;5.134;2023-07-31T02:44:41;26.93;;;8.07;;
70545;SDS011;58098;51.680;5.134;2023-07-31T02:47:07;28.73;;;7.97;;
70545;SDS011;58098;51.680;5.134;2023-07-31T02:49:32;26.73;;;7.72;;
70545;SDS011;58098;51.680;5.134;2023-07-31T02:51:57;29.23;;;8.43;;
70545;SDS011;58098;51.680;5.134;2023-07-31T02:54:23;28.53;;;7.53;;
70545;SDS011;58098;51.680;5.134;2023-07-31T02:56:48;28.93;;;8.03;;
70545;SDS011;58098;51.680;5.134;2023-07-31T02:59:14;25.77;;;7.33;;
70545;SDS011;58098;51.680;5.134;2023-07-31T03:01:39;29.38;;;7.60;;
70545;SDS011;58098;51.680;5.134;2023-07-31T03:04:04;23.20;;;6.53;;
70545;SDS011;58098;51.680;5.134;2023-07-31T03:06:30;22.97;;;8.23;;
70545;SDS011;58098;51.680;5.134;2023-07-31T03:08:55;29.13;;;8.13;;
70545;SDS011;58098;51.680;5.134;2023-07-31T03:11:21;25.20;;;7.37;;
70545;SDS011;58098;51.680;5.134;2023-07-31T03:13:46;25.85;;;8.00;;
70545;SDS011;58098;51.680;5.134;2023-07-31T03:16:11;30.10;;;7.40;;
70545;SDS011;58098;51.680;5.134;2023-07-31T03:18:37;25.50;;;7.67;;
70545;SDS011;58098;51.680;5.134;2023-07-31T03:21:02;31.70;;;7.80;;
70545;SDS011;58098;51.680;5.134;2023-07-31T03:23:27;26.40;;;7.70;;
70545;SDS011;58098;51.680;5.134;2023-07-31T03:25:56;29.53;;;7.47;;
70545;SDS011;58098;51.680;5.134;2023-07-31T03:28:22;28.70;;;7.80;;
70545;SDS011;58098;51.680;5.134;2023-07-31T03:30:47;25.20;;;7.27;;
70545;SDS011;58098;51.680;5.134;2023-07-31T03:33:12;24.70;;;7.40;;
70545;SDS011;58098;51.680;5.134;2023-07-31T03:35:38;25.33;;;7.93;;
70545;SDS011;58098;51.680;5.134;2023-07-31T03:38:03;31.67;;;7.88;;
70545;SDS011;58098;51.680;5.134;2023-07-31T03:40:28;26.73;;;7.37;;
70545;SDS011;58098;51.680;5.134;2023-07-31T03:42:54;27.90;;;7.60;;
70545;SDS011;58098;51.680;5.134;2023-07-31T03:45:19;25.93;;;8.17;;
70545;SDS011;58098;51.680;5.134;2023-07-31T03:47:44;23.03;;;7.70;;
70545;SDS011;58098;51.680;5.134;2023-07-31T03:50:10;22.53;;;7.67;;
70545;SDS011;58098;51.680;5.134;2023-07-31T03:52:35;28.17;;;7.50;;
70545;SDS011;58098;51.680;5.134;2023-07-31T03:55:00;26.77;;;7.68;;
70545;SDS011;58098;51.680;5.134;2023-07-31T03:57:26;27.57;;;7.53;;
70545;SDS011;58098;51.680;5.134;2023-07-31T03:59:52;31.03;;;8.43;;
70545;SDS011;58098;51.680;5.134;2023-07-31T04:02:17;23.52;;;7.13;;
70545;SDS011;58098;51.680;5.134;2023-07-31T04:04:43;21.43;;;7.87;;
70545;SDS011;58098;51.680;5.134;2023-07-31T04:07:09;27.57;;;7.70;;
70545;SDS011;58098;51.680;5.134;2023-07-31T04:09:34;28.47;;;7.83;;
70545;SDS011;58098;51.680;5.134;2023-07-31T04:11:59;20.70;;;7.10;;
70545;SDS011;58098;51.680;5.134;2023-07-31T04:14:25;24.47;;;6.90;;
70545;SDS011;58098;51.680;5.134;2023-07-31T04:16:50;24.57;;;7.20;;
70545;SDS011;58098;51.680;5.134;2023-07-31T04:19:15;22.43;;;6.90;;
70545;SDS011;58098;51.680;5.134;2023-07-31T04:21:41;18.90;;;7.28;;
70545;SDS011;58098;51.680;5.134;2023-07-31T04:24:07;26.95;;;7.63;;
70545;SDS011;58098;51.680;5.134;2023-07-31T04:26:32;24.33;;;7.23;;
70545;SDS011;58098;51.680;5.134;2023-07-31T04:28:58;25.97;;;7.33;;
70545;SDS011;58098;51.680;5.134;2023-07-31T04:31:23;25.10;;;7.40;;
70545;SDS011;58098;51.680;5.134;2023-07-31T04:33:48;18.80;;;6.93;;
70545;SDS011;58098;51.680;5.134;2023-07-31T04:36:14;22.57;;;7.20;;
70545;SDS011;58098;51.680;5.134;2023-07-31T04:38:39;27.70;;;7.73;;
70545;SDS011;58098;51.680;5.134;2023-07-31T04:41:06;22.77;;;8.00;;
70545;SDS011;58098;51.680;5.134;2023-07-31T04:43:31;21.00;;;7.00;;
70545;SDS011;58098;51.680;5.134;2023-07-31T04:45:56;27.13;;;7.60;;
70545;SDS011;58098;51.680;5.134;2023-07-31T04:48:23;23.40;;;7.10;;
70545;SDS011;58098;51.680;5.134;2023-07-31T04:50:48;21.40;;;7.65;;
70545;SDS011;58098;51.680;5.134;2023-07-31T04:53:14;21.90;;;7.97;;
70545;SDS011;58098;51.680;5.134;2023-07-31T04:55:39;20.13;;;7.53;;
70545;SDS011;58098;51.680;5.134;2023-07-31T04:58:04;25.02;;;7.20;;
70545;SDS011;58098;51.680;5.134;2023-07-31T05:00:30;22.77;;;6.97;;
70545;SDS011;58098;51.680;5.134;2023-07-31T05:02:55;19.93;;;6.70;;
70545;SDS011;58098;51.680;5.134;2023-07-31T05:05:21;20.40;;;7.07;;
70545;SDS011;58098;51.680;5.134;2023-07-31T05:07:46;22.77;;;7.07;;
70545;SDS011;58098;51.680;5.134;2023-07-31T05:10:12;22.53;;;7.10;;
70545;SDS011;58098;51.680;5.134;2023-07-31T05:12:37;23.20;;;6.93;;
70545;SDS011;58098;51.680;5.134;2023-07-31T05:15:02;21.00;;;7.47;;
70545;SDS011;58098;51.680;5.134;2023-07-31T05:17:28;27.58;;;7.82;;
70545;SDS011;58098;51.680;5.134;2023-07-31T05:19:53;25.00;;;7.30;;
70545;SDS011;58098;51.680;5.134;2023-07-31T05:22:19;24.33;;;7.20;;
70545;SDS011;58098;51.680;5.134;2023-07-31T05:24:44;21.87;;;7.40;;
70545;SDS011;58098;51.680;5.134;2023-07-31T05:27:10;22.43;;;7.60;;
70545;SDS011;58098;51.680;5.134;2023-07-31T05:29:35;20.85;;;7.07;;
70545;SDS011;58098;51.680;5.134;2023-07-31T05:32:01;22.93;;;8.00;;
70545;SDS011;58098;51.680;5.134;2023-07-31T05:34:26;26.30;;;8.30;;
70545;SDS011;58098;51.680;5.134;2023-07-31T05:36:51;27.03;;;8.20;;
70545;SDS011;58098;51.680;5.134;2023-07-31T05:39:18;25.40;;;7.22;;
70545;SDS011;58098;51.680;5.134;2023-07-31T05:41:44;19.80;;;7.28;;
70545;SDS011;58098;51.680;5.134;2023-07-31T05:44:10;23.13;;;7.70;;
70545;SDS011;58098;51.680;5.134;2023-07-31T05:46:35;23.23;;;7.80;;
70545;SDS011;58098;51.680;5.134;2023-07-31T05:49:00;18.80;;;6.87;;
70545;SDS011;58098;51.680;5.134;2023-07-31T05:51:26;19.83;;;7.40;;
70545;SDS011;58098;51.680;5.134;2023-07-31T05:53:52;26.87;;;7.70;;
70545;SDS011;58098;51.680;5.134;2023-07-31T05:56:18;16.67;;;7.07;;
70545;SDS011;58098;51.680;5.134;2023-07-31T05:58:43;14.07;;;7.23;;
70545;SDS011;58098;51.680;5.134;2023-07-31T06:01:08;19.13;;;7.00;;
70545;SDS011;58098;51.680;5.134;2023-07-31T06:03:34;15.07;;;6.20;;
70545;SDS011;58098;51.680;5.134;2023-07-31T06:05:59;16.17;;;6.20;;
70545;SDS011;58098;51.680;5.134;2023-07-31T06:08:24;10.43;;;5.63;;
70545;SDS011;58098;51.680;5.134;2023-07-31T06:10:50;19.70;;;6.20;;
70545;SDS011;58098;51.680;5.134;2023-07-31T06:13:15;16.77;;;6.30;;
70545;SDS011;58098;51.680;5.134;2023-07-31T06:15:40;13.30;;;5.90;;
70545;SDS011;58098;51.680;5.134;2023-07-31T06:18:06;11.70;;;5.50;;
70545;SDS011;58098;51.680;5.134;2023-07-31T06:20:33;10.75;;;5.70;;
70545;SDS011;58098;51.680;5.134;2023-07-31T06:22:59;10.70;;;5.93;;
70545;SDS011;58098;51.680;5.134;2023-07-31T06:25:25;13.07;;;6.07;;
70545;SDS011;58098;51.680;5.134;2023-07-31T06:27:50;10.90;;;5.23;;
70545;SDS011;58098;51.680;5.134;2023-07-31T06:30:16;13.98;;;5.97;;
70545;SDS011;58098;51.680;5.134;2023-07-31T06:32:41;10.53;;;5.33;;
70545;SDS011;58098;51.680;5.134;2023-07-31T06:35:07;10.35;;;5.97;;
70545;SDS011;58098;51.680;5.134;2023-07-31T06:37:33;12.13;;;6.67;;
70545;SDS011;58098;51.680;5.134;2023-07-31T06:39:58;9.82;;;5.90;;
70545;SDS011;58098;51.680;5.134;2023-07-31T06:42:24;10.03;;;5.27;;
70545;SDS011;58098;51.680;5.134;2023-07-31T06:44:49;12.63;;;5.90;;
70545;SDS011;58098;51.680;5.134;2023-07-31T06:47:14;10.37;;;5.50;;
70545;SDS011;58098;51.680;5.134;2023-07-31T06:49:40;9.73;;;5.30;;
70545;SDS011;58098;51.680;5.134;2023-07-31T06:52:05;10.50;;;5.43;;
70545;SDS011;58098;51.680;5.134;2023-07-31T06:54:31;9.90;;;4.60;;
70545;SDS011;58098;51.680;5.134;2023-07-31T06:56:56;6.73;;;5.07;;
70545;SDS011;58098;51.680;5.134;2023-07-31T06:59:22;7.40;;;5.07;;
70545;SDS011;58098;51.680;5.134;2023-07-31T07:01:47;7.87;;;5.00;;
70545;SDS011;58098;51.680;5.134;2023-07-31T07:04:13;9.40;;;5.07;;
70545;SDS011;58098;51.680;5.134;2023-07-31T07:06:39;7.88;;;5.28;;
70545;SDS011;58098;51.680;5.134;2023-07-31T07:09:04;7.83;;;5.10;;
70545;SDS011;58098;51.680;5.134;2023-07-31T07:11:30;8.27;;;5.17;;
70545;SDS011;58098;51.680;5.134;2023-07-31T07:13:56;8.45;;;4.60;;
70545;SDS011;58098;51.680;5.134;2023-07-31T07:16:21;8.53;;;5.33;;
70545;SDS011;58098;51.680;5.134;2023-07-31T07:18:46;6.00;;;4.50;;
70545;SDS011;58098;51.680;5.134;2023-07-31T07:21:11;8.13;;;4.87;;
70545;SDS011;58098;51.680;5.134;2023-07-31T07:23:40;7.30;;;5.07;;
70545;SDS011;58098;51.680;5.134;2023-07-31T07:26:06;10.65;;;5.03;;
70545;SDS011;58098;51.680;5.134;2023-07-31T07:28:31;5.87;;;4.50;;
70545;SDS011;58098;51.680;5.134;2023-07-31T07:30:57;8.67;;;4.90;;
70545;SDS011;58098;51.680;5.134;2023-07-31T07:33:23;7.25;;;4.45;;
70545;SDS011;58098;51.680;5.134;2023-07-31T07:35:48;7.20;;;4.60;;
70545;SDS011;58098;51.680;5.134;2023-07-31T07:38:14;6.50;;;4.80;;
70545;SDS011;58098;51.680;5.134;2023-07-31T07:40:40;8.57;;;5.13;;
70545;SDS011;58098;51.680;5.134;2023-07-31T07:43:05;6.17;;;4.67;;
70545;SDS011;58098;51.680;5.134;2023-07-31T07:45:31;7.60;;;5.00;;
70545;SDS011;58098;51.680;5.134;2023-07-31T07:47:56;8.75;;;5.43;;
70545;SDS011;58098;51.680;5.134;2023-07-31T07:50:22;8.17;;;5.37;;
70545;SDS011;58098;51.680;5.134;2023-07-31T07:52:48;7.30;;;5.32;;
70545;SDS011;58098;51.680;5.134;2023-07-31T07:55:13;11.57;;;6.30;;
70545;SDS011;58098;51.680;5.134;2023-07-31T07:57:38;8.90;;;6.10;;
70545;SDS011;58098;51.680;5.134;2023-07-31T08:00:04;8.87;;;5.97;;
70545;SDS011;58098;51.680;5.134;2023-07-31T08:02:30;9.35;;;5.80;;
70545;SDS011;58098;51.680;5.134;2023-07-31T08:04:56;12.27;;;6.90;;
70545;SDS011;58098;51.680;5.134;2023-07-31T08:07:21;10.00;;;6.73;;
70545;SDS011;58098;51.680;5.134;2023-07-31T08:09:46;9.27;;;6.53;;
70545;SDS011;58098;51.680;5.134;2023-07-31T08:12:12;14.40;;;7.60;;
70545;SDS011;58098;51.680;5.134;2023-07-31T08:14:37;11.73;;;7.17;;
70545;SDS011;58098;51.680;5.134;2023-07-31T08:17:02;11.37;;;7.50;;
70545;SDS011;58098;51.680;5.134;2023-07-31T08:19:28;13.48;;;7.68;;
70545;SDS011;58098;51.680;5.134;2023-07-31T08:21:53;12.07;;;8.23;;
70545;SDS011;58098;51.680;5.134;2023-07-31T08:24:18;9.60;;;8.10;;
70545;SDS011;58098;51.680;5.134;2023-07-31T08:26:44;10.47;;;7.70;;
70545;SDS011;58098;51.680;5.134;2023-07-31T08:29:09;16.67;;;9.03;;
70545;SDS011;58098;51.680;5.134;2023-07-31T08:31:35;14.43;;;9.30;;
70545;SDS011;58098;51.680;5.134;2023-07-31T08:34:00;12.13;;;8.20;;
70545;SDS011;58098;51.680;5.134;2023-07-31T08:36:26;13.27;;;9.50;;
70545;SDS011;58098;51.680;5.134;2023-07-31T08:38:51;17.58;;;9.73;;
70545;SDS011;58098;51.680;5.134;2023-07-31T08:41:17;13.27;;;9.70;;
70545;SDS011;58098;51.680;5.134;2023-07-31T08:43:42;16.03;;;8.93;;
70545;SDS011;58098;51.680;5.134;2023-07-31T08:46:10;13.88;;;9.65;;
70545;SDS011;58098;51.680;5.134;2023-07-31T08:48:35;17.40;;;10.87;;
70545;SDS011;58098;51.680;5.134;2023-07-31T08:51:03;16.90;;;10.85;;
70545;SDS011;58098;51.680;5.134;2023-07-31T08:53:28;15.20;;;10.77;;
70545;SDS011;58098;51.680;5.134;2023-07-31T08:55:54;18.77;;;10.97;;
70545;SDS011;58098;51.680;5.134;2023-07-31T08:58:21;18.27;;;11.52;;
70545;SDS011;58098;51.680;5.134;2023-07-31T09:00:48;16.55;;;10.38;;
70545;SDS011;58098;51.680;5.134;2023-07-31T09:03:17;14.50;;;11.07;;
70545;SDS011;58098;51.680;5.134;2023-07-31T09:05:44;16.60;;;9.95;;
70545;SDS011;58098;51.680;5.134;2023-07-31T09:08:11;16.40;;;10.33;;
70545;SDS011;58098;51.680;5.134;2023-07-31T09:10:42;16.00;;;10.25;;
70545;SDS011;58098;51.680;5.134;2023-07-31T09:13:09;15.70;;;10.40;;
70545;SDS011;58098;51.680;5.134;2023-07-31T09:15:35;15.48;;;9.63;;
70545;SDS011;58098;51.680;5.134;2023-07-31T09:18:02;14.02;;;10.10;;
70545;SDS011;58098;51.680;5.134;2023-07-31T09:20:28;16.80;;;9.73;;
70545;SDS011;58098;51.680;5.134;2023-07-31T09:22:54;16.50;;;10.00;;
70545;SDS011;58098;51.680;5.134;2023-07-31T09:25:21;14.83;;;9.73;;
70545;SDS011;58098;51.680;5.134;2023-07-31T09:27:52;16.27;;;9.50;;
70545;SDS011;58098;51.680;5.134;2023-07-31T09:30:28;15.70;;;9.07;;
70545;SDS011;58098;51.680;5.134;2023-07-31T09:33:01;11.10;;;8.30;;
70545;SDS011;58098;51.680;5.134;2023-07-31T09:35:31;13.63;;;8.43;;
70545;SDS011;58098;51.680;5.134;2023-07-31T09:37:59;13.05;;;8.00;;
70545;SDS011;58098;51.680;5.134;2023-07-31T09:40:32;15.10;;;7.30;;
70545;SDS011;58098;51.680;5.134;2023-07-31T09:42:58;10.27;;;7.10;;
70545;SDS011;58098;51.680;5.134;2023-07-31T09:45:25;10.98;;;7.07;;
70545;SDS011;58098;51.680;5.134;2023-07-31T09:47:51;12.73;;;6.50;;
70545;SDS011;58098;51.680;5.134;2023-07-31T09:50:16;11.68;;;6.68;;
70545;SDS011;58098;51.680;5.134;2023-07-31T09:52:42;9.17;;;6.00;;
70545;SDS011;58098;51.680;5.134;2023-07-31T09:55:08;8.73;;;5.63;;
70545;SDS011;58098;51.680;5.134;2023-07-31T09:57:34;10.50;;;6.30;;
70545;SDS011;58098;51.680;5.134;2023-07-31T10:00:04;8.50;;;6.03;;
70545;SDS011;58098;51.680;5.134;2023-07-31T10:02:30;8.00;;;5.55;;
70545;SDS011;58098;51.680;5.134;2023-07-31T10:04:57;8.73;;;5.47;;
70545;SDS011;58098;51.680;5.134;2023-07-31T10:07:25;10.87;;;5.60;;
70545;SDS011;58098;51.680;5.134;2023-07-31T10:09:54;10.00;;;6.15;;
70545;SDS011;58098;51.680;5.134;2023-07-31T10:12:22;10.73;;;5.93;;
70545;SDS011;58098;51.680;5.134;2023-07-31T10:14:50;10.25;;;6.15;;
70545;SDS011;58098;51.680;5.134;2023-07-31T10:17:19;9.80;;;5.80;;
70545;SDS011;58098;51.680;5.134;2023-07-31T10:19:47;10.20;;;5.57;;
70545;SDS011;58098;51.680;5.134;2023-07-31T10:22:13;7.88;;;5.30;;
70545;SDS011;58098;51.680;5.134;2023-07-31T10:24:39;8.77;;;5.50;;
70545;SDS011;58098;51.680;5.134;2023-07-31T10:27:05;10.43;;;5.55;;
70545;SDS011;58098;51.680;5.134;2023-07-31T10:29:32;9.57;;;5.65;;
70545;SDS011;58098;51.680;5.134;2023-07-31T10:31:58;7.30;;;4.70;;
70545;SDS011;58098;51.680;5.134;2023-07-31T10:34:25;6.85;;;4.40;;
70545;SDS011;58098;51.680;5.134;2023-07-31T10:36:56;9.52;;;5.53;;
70545;SDS011;58098;51.680;5.134;2023-07-31T10:39:45;6.65;;;4.85;;
70545;SDS011;58098;51.680;5.134;2023-07-31T10:42:21;7.55;;;4.90;;
70545;SDS011;58098;51.680;5.134;2023-07-31T10:44:55;7.37;;;4.50;;
70545;SDS011;58098;51.680;5.134;2023-07-31T10:47:22;7.72;;;4.47;;
70545;SDS011;58098;51.680;5.134;2023-07-31T10:49:47;6.73;;;4.60;;
70545;SDS011;58098;51.680;5.134;2023-07-31T10:52:13;6.75;;;4.85;;
70545;SDS011;58098;51.680;5.134;2023-07-31T10:54:44;7.50;;;4.63;;
70545;SDS011;58098;51.680;5.134;2023-07-31T10:57:20;7.50;;;4.70;;
70545;SDS011;58098;51.680;5.134;2023-07-31T10:59:49;6.90;;;4.30;;
70545;SDS011;58098;51.680;5.134;2023-07-31T11:02:24;9.60;;;4.60;;
70545;SDS011;58098;51.680;5.134;2023-07-31T11:05:09;6.53;;;4.70;;
70545;SDS011;58098;51.680;5.134;2023-07-31T11:07:50;7.03;;;4.70;;
70545;SDS011;58098;51.680;5.134;2023-07-31T11:10:16;7.72;;;4.50;;
70545;SDS011;58098;51.680;5.134;2023-07-31T11:12:42;5.30;;;4.80;;
70545;SDS011;58098;51.680;5.134;2023-07-31T11:15:08;11.67;;;4.87;;
70545;SDS011;58098;51.680;5.134;2023-07-31T11:17:38;7.07;;;5.10;;
70545;SDS011;58098;51.680;5.134;2023-07-31T11:20:04;8.50;;;5.20;;
70545;SDS011;58098;51.680;5.134;2023-07-31T11:22:30;6.35;;;5.22;;
70545;SDS011;58098;51.680;5.134;2023-07-31T11:24:56;7.63;;;4.87;;
70545;SDS011;58098;51.680;5.134;2023-07-31T11:27:21;6.63;;;4.90;;
70545;SDS011;58098;51.680;5.134;2023-07-31T11:29:46;7.23;;;5.20;;
70545;SDS011;58098;51.680;5.134;2023-07-31T11:32:16;6.10;;;4.67;;
70545;SDS011;58098;51.680;5.134;2023-07-31T11:34:55;7.60;;;5.25;;
70545;SDS011;58098;51.680;5.134;2023-07-31T11:37:20;8.27;;;5.30;;
70545;SDS011;58098;51.680;5.134;2023-07-31T11:40:01;9.67;;;5.37;;
70545;SDS011;58098;51.680;5.134;2023-07-31T11:42:27;8.10;;;5.40;;
70545;SDS011;58098;51.680;5.134;2023-07-31T11:44:52;9.63;;;5.33;;
70545;SDS011;58098;51.680;5.134;2023-07-31T11:47:17;9.23;;;5.30;;
70545;SDS011;58098;51.680;5.134;2023-07-31T11:49:43;8.77;;;5.20;;
70545;SDS011;58098;51.680;5.134;2023-07-31T11:52:08;7.83;;;5.43;;
70545;SDS011;58098;51.680;5.134;2023-07-31T11:54:35;7.43;;;5.30;;
70545;SDS011;58098;51.680;5.134;2023-07-31T11:57:01;8.43;;;5.97;;
70545;SDS011;58098;51.680;5.134;2023-07-31T11:59:27;7.43;;;5.10;;
70545;SDS011;58098;51.680;5.134;2023-07-31T12:01:53;8.45;;;5.38;;
70545;SDS011;58098;51.680;5.134;2023-07-31T12:04:19;6.80;;;5.60;;
70545;SDS011;58098;51.680;5.134;2023-07-31T12:06:46;8.73;;;5.43;;
70545;SDS011;58098;51.680;5.134;2023-07-31T12:09:13;9.43;;;5.57;;
70545;SDS011;58098;51.680;5.134;2023-07-31T12:11:46;9.18;;;5.88;;
70545;SDS011;58098;51.680;5.134;2023-07-31T12:14:19;7.97;;;6.07;;
70545;SDS011;58098;51.680;5.134;2023-07-31T12:16:57;9.60;;;5.88;;
70545;SDS011;58098;51.680;5.134;2023-07-31T12:19:27;7.97;;;5.78;;
70545;SDS011;58098;51.680;5.134;2023-07-31T12:21:54;9.15;;;5.70;;
70545;SDS011;58098;51.680;5.134;2023-07-31T12:24:21;9.00;;;6.10;;
70545;SDS011;58098;51.680;5.134;2023-07-31T12:26:48;9.47;;;6.03;;
70545;SDS011;58098;51.680;5.134;2023-07-31T12:29:14;10.07;;;6.05;;
70545;SDS011;58098;51.680;5.134;2023-07-31T12:31:42;11.10;;;6.60;;
70545;SDS011;58098;51.680;5.134;2023-07-31T12:34:18;9.73;;;6.30;;
70545;SDS011;58098;51.680;5.134;2023-07-31T12:36:45;9.20;;;5.88;;
70545;SDS011;58098;51.680;5.134;2023-07-31T12:39:11;10.53;;;5.97;;
70545;SDS011;58098;51.680;5.134;2023-07-31T12:41:37;8.32;;;6.35;;
70545;SDS011;58098;51.680;5.134;2023-07-31T12:44:03;8.43;;;5.87;;
70545;SDS011;58098;51.680;5.134;2023-07-31T12:46:29;8.20;;;5.65;;
70545;SDS011;58098;51.680;5.134;2023-07-31T12:48:54;9.33;;;6.00;;
70545;SDS011;58098;51.680;5.134;2023-07-31T12:51:19;8.97;;;6.70;;
70545;SDS011;58098;51.680;5.134;2023-07-31T12:53:45;9.38;;;6.20;;
70545;SDS011;58098;51.680;5.134;2023-07-31T12:56:11;9.90;;;6.13;;
70545;SDS011;58098;51.680;5.134;2023-07-31T12:58:36;11.10;;;6.50;;
70545;SDS011;58098;51.680;5.134;2023-07-31T13:01:01;9.30;;;6.00;;
70545;SDS011;58098;51.680;5.134;2023-07-31T13:03:27;13.13;;;6.10;;
70545;SDS011;58098;51.680;5.134;2023-07-31T13:05:52;11.33;;;6.53;;
70545;SDS011;58098;51.680;5.134;2023-07-31T13:08:18;11.23;;;6.37;;
70545;SDS011;58098;51.680;5.134;2023-07-31T13:10:43;10.47;;;6.63;;
70545;SDS011;58098;51.680;5.134;2023-07-31T13:13:09;12.23;;;6.47;;
70545;SDS011;58098;51.680;5.134;2023-07-31T13:15:34;10.20;;;6.60;;
70545;SDS011;58098;51.680;5.134;2023-07-31T13:18:00;11.13;;;6.40;;
70545;SDS011;58098;51.680;5.134;2023-07-31T13:20:25;12.47;;;6.17;;
70545;SDS011;58098;51.680;5.134;2023-07-31T13:22:51;12.00;;;6.33;;
70545;SDS011;58098;51.680;5.134;2023-07-31T13:25:16;9.70;;;5.53;;
70545;SDS011;58098;51.680;5.134;2023-07-31T13:27:41;12.50;;;6.37;;
70545;SDS011;58098;51.680;5.134;2023-07-31T13:30:07;11.07;;;6.07;;
70545;SDS011;58098;51.680;5.134;2023-07-31T13:32:42;9.65;;;6.20;;
70545;SDS011;58098;51.680;5.134;2023-07-31T13:35:08;8.97;;;5.63;;
70545;SDS011;58098;51.680;5.134;2023-07-31T13:37:34;11.20;;;6.43;;
70545;SDS011;58098;51.680;5.134;2023-07-31T13:40:00;10.13;;;6.17;;
70545;SDS011;58098;51.680;5.134;2023-07-31T13:42:25;10.35;;;6.05;;
70545;SDS011;58098;51.680;5.134;2023-07-31T13:44:51;11.73;;;6.33;;
70545;SDS011;58098;51.680;5.134;2023-07-31T13:47:16;12.13;;;6.53;;
70545;SDS011;58098;51.680;5.134;2023-07-31T13:49:41;10.10;;;6.37;;
70545;SDS011;58098;51.680;5.134;2023-07-31T13:52:08;11.55;;;6.53;;
70545;SDS011;58098;51.680;5.134;2023-07-31T13:54:33;12.37;;;7.23;;
70545;SDS011;58098;51.680;5.134;2023-07-31T13:56:59;14.17;;;6.70;;
70545;SDS011;58098;51.680;5.134;2023-07-31T13:59:25;13.98;;;7.38;;
70545;SDS011;58098;51.680;5.134;2023-07-31T14:01:50;12.17;;;7.47;;
70545;SDS011;58098;51.680;5.134;2023-07-31T14:04:16;13.02;;;7.45;;
70545;SDS011;58098;51.680;5.134;2023-07-31T14:06:42;13.53;;;7.40;;
70545;SDS011;58098;51.680;5.134;2023-07-31T14:09:08;13.48;;;7.18;;
70545;SDS011;58098;51.680;5.134;2023-07-31T14:11:34;12.63;;;7.28;;
70545;SDS011;58098;51.680;5.134;2023-07-31T14:14:00;13.07;;;7.00;;
70545;SDS011;58098;51.680;5.134;2023-07-31T14:16:26;12.23;;;6.93;;
70545;SDS011;58098;51.680;5.134;2023-07-31T14:18:53;11.77;;;7.30;;
70545;SDS011;58098;51.680;5.134;2023-07-31T14:21:18;13.00;;;7.47;;
70545;SDS011;58098;51.680;5.134;2023-07-31T14:23:44;15.37;;;7.50;;
70545;SDS011;58098;51.680;5.134;2023-07-31T14:26:10;13.63;;;7.47;;
70545;SDS011;58098;51.680;5.134;2023-07-31T14:28:35;16.53;;;7.80;;
70545;SDS011;58098;51.680;5.134;2023-07-31T14:31:00;16.40;;;7.10;;
70545;SDS011;58098;51.680;5.134;2023-07-31T14:33:26;13.50;;;7.60;;
70545;SDS011;58098;51.680;5.134;2023-07-31T14:35:51;13.07;;;7.43;;
70545;SDS011;58098;51.680;5.134;2023-07-31T14:38:17;12.98;;;7.05;;
70545;SDS011;58098;51.680;5.134;2023-07-31T14:40:42;13.03;;;6.80;;
70545;SDS011;58098;51.680;5.134;2023-07-31T14:43:08;10.80;;;6.20;;